Time;durP1;ratioP1;P1;durP2;ratioP2;P2;SDS_P1;SDS_P2;PMS_P1;PMS_P2;Temp;Humidity;BMP_temperature;BMP_pressure;BME280_temperature;BME280_humidity;BME280_pressure;Samples;Min_cycle;Max_cycle;Signal;HPM_P1;HPM_P2
2021/03/29 00:00:18;;;;;;;;;;;;;;;5.34;75.65;97132.59;1027663;28;19961;-69
2021/03/29 00:00:48;;;;;;;;;;;;;;;5.32;75.77;97142.38;1027432;28;19992;-69
2021/03/29 00:01:18;;;;;;;;;;;;;;;5.32;76.08;97134.59;1027250;28;19918;-68
2021/03/29 00:01:49;;;;;;;;;;;;;;;5.37;75.70;97137.41;1023806;28;19914;-69
2021/03/29 00:02:19;;;;;;;;;;;;;;;5.44;75.53;97133.03;1023363;28;20394;-69
2021/03/29 00:02:49;;;;;;;;;;;;;;;5.42;75.47;97129.81;1023539;28;20007;-69
2021/03/29 00:03:20;;;;;;;;;;;;;;;5.43;76.02;97128.81;1025079;28;19911;-69
2021/03/29 00:03:50;;;;;;;;;;;;;;;5.48;75.71;97130.84;1031318;28;19921;-68
2021/03/29 00:04:20;;;;;;;;;;;;;;;5.58;75.09;97132.06;1025436;28;19948;-69
2021/03/29 00:04:51;;;;;;;;;;;;;;;5.57;75.19;97129.69;1027661;28;19957;-69
2021/03/29 00:05:22;;;;;;;;;;;;;;;5.53;75.24;97120.63;1028424;28;19941;-68
2021/03/29 00:05:52;;;;;;;;;;;;;;;5.44;75.23;97130.44;1027631;28;20548;-67
2021/03/29 00:06:23;;;;;;;;;;;;;;;5.39;75.45;97128.41;1027209;28;19931;-69
2021/03/29 00:06:53;;;;;;;;;;;;;;;5.40;76.00;97131.81;1027417;28;19918;-68
2021/03/29 00:07:24;;;;;;;;;;;;;;;5.34;76.26;97125.59;1019686;29;19914;-69
2021/03/29 00:07:55;;;;;;;;;;;;;;;5.30;76.63;97132.19;1023567;28;20430;-69
2021/03/29 00:08:27;;;;;;;;;;;;;;;5.26;76.88;97133.56;1030655;28;20836;-68
2021/03/29 00:08:57;;;;;;;;;;;;;;;5.29;76.77;97132.38;1031983;28;20382;-68
2021/03/29 00:09:28;;;;;;;;;;;;;;;5.25;76.79;97131.94;1031046;28;19917;-69
2021/03/29 00:09:59;;;;;;;;;;;;;;;5.37;76.41;97120.00;1035579;28;20315;-69
2021/03/29 00:10:30;;;;;;;;;;;;;;;5.32;76.31;97132.78;1026794;28;19956;-69
2021/03/29 00:11:00;;;;;;;;;;;;;;;5.33;76.30;97129.19;1027316;28;19955;-69
2021/03/29 00:11:31;;;;;;;;;;;;;;;5.33;76.48;97129.19;1031429;28;19925;-69
2021/03/29 00:12:02;;;;;;;;;;;;;;;5.33;76.86;97124.00;1031370;28;19960;-67
2021/03/29 00:12:33;;;;;;;;;;;;;;;5.31;76.63;97125.97;1027151;28;19945;-68
2021/03/29 00:13:03;;;;;;;;;;;;;;;5.33;76.64;97134.41;1027677;28;19910;-67
2021/03/29 00:13:34;;;;;;;;;;;;;;;5.32;76.80;97124.97;1031433;28;19945;-68
2021/03/29 00:14:04;;;;;;;;;;;;;;;5.31;76.90;97130.38;1031179;28;19929;-69
2021/03/29 00:14:34;;;;;;;;;;;;;;;5.33;76.88;97125.78;1027492;28;19992;-69
2021/03/29 00:15:05;;;;;;;;;;;;;;;5.28;76.93;97128.97;1027303;28;19918;-68
2021/03/29 00:15:36;;;;;;;;;;;;;;;5.29;76.80;97127.97;1031693;28;20040;-68
2021/03/29 00:16:06;;;;;;;;;;;;;;;5.29;77.11;97125.34;1031111;28;19910;-69
2021/03/29 00:16:37;;;;;;;;;;;;;;;5.32;77.05;97127.56;1027276;28;20008;-68
2021/03/29 00:17:07;;;;;;;;;;;;;;;5.34;77.27;97112.56;1031685;28;19960;-69
2021/03/29 00:17:40;;;;;;;;;;;;;;;5.33;77.06;97126.59;1031547;28;19921;-67
2021/03/29 00:18:10;;;;;;;;;;;;;;;5.31;77.01;97127.78;1035849;28;19929;-68
2021/03/29 00:18:41;;;;;;;;;;;;;;;5.36;77.11;97123.56;1026661;28;20386;-68
2021/03/29 00:19:11;;;;;;;;;;;;;;;5.34;77.28;97123.00;1031698;28;19948;-68
2021/03/29 00:19:42;;;;;;;;;;;;;;;5.31;77.48;97128.56;1031532;28;20441;-68
2021/03/29 00:20:13;;;;;;;;;;;;;;;5.27;77.67;97124.78;1037258;28;19909;-69
2021/03/29 00:20:45;;;;;;;;;;;;;;;5.24;77.62;97130.34;1031420;28;20009;-69
2021/03/29 00:21:15;;;;;;;;;;;;;;;5.24;77.83;97130.34;1035291;28;20023;-68
2021/03/29 00:21:46;;;;;;;;;;;;;;;5.21;77.81;97133.34;1030982;28;19925;-68
2021/03/29 00:22:16;;;;;;;;;;;;;;;5.23;77.78;97127.94;1034965;28;19914;-68
2021/03/29 00:22:46;;;;;;;;;;;;;;;5.18;78.00;97131.13;1031108;28;19910;-68
2021/03/29 00:23:17;;;;;;;;;;;;;;;5.22;78.17;97129.72;1031461;28;19935;-69
2021/03/29 00:23:47;;;;;;;;;;;;;;;5.22;78.18;97132.34;1031504;28;19964;-68
2021/03/29 00:24:17;;;;;;;;;;;;;;;5.24;78.22;97130.34;1035433;28;19920;-68
2021/03/29 00:24:48;;;;;;;;;;;;;;;5.20;78.22;97122.13;1034465;28;19909;-68
2021/03/29 00:25:19;;;;;;;;;;;;;;;5.19;78.53;97130.91;1034572;28;20374;-69
2021/03/29 00:25:49;;;;;;;;;;;;;;;5.24;78.26;97130.34;1031348;28;19920;-68
2021/03/29 00:26:20;;;;;;;;;;;;;;;5.28;78.36;97130.78;1029651;28;19906;-69
2021/03/29 00:26:50;;;;;;;;;;;;;;;5.25;78.20;97125.94;1035357;28;19909;-68
2021/03/29 00:27:20;;;;;;;;;;;;;;;5.22;78.59;97126.34;1031832;28;19940;-68
2021/03/29 00:27:51;;;;;;;;;;;;;;;5.19;78.81;97130.13;1027721;28;19914;-69
2021/03/29 00:28:21;;;;;;;;;;;;;;;5.19;78.53;97132.72;1034897;28;19914;-69
2021/03/29 00:28:51;;;;;;;;;;;;;;;5.18;78.77;97131.13;1035004;28;19920;-68
2021/03/29 00:29:22;;;;;;;;;;;;;;;5.19;79.08;97130.13;1023285;29;19962;-68
2021/03/29 00:29:52;;;;;;;;;;;;;;;5.22;79.07;97131.53;1034275;28;19909;-69
2021/03/29 00:30:30;;;;;;;;;;;;;;;5.28;78.81;97131.56;1035532;28;19921;-69
2021/03/29 00:31:00;;;;;;;;;;;;;;;5.31;78.46;97132.97;1036173;28;19913;-69
2021/03/29 00:31:31;;;;;;;;;;;;;;;5.26;78.80;97133.56;1036173;28;20008;-68
2021/03/29 00:32:02;;;;;;;;;;;;;;;5.22;78.55;97132.34;1035695;28;19931;-68
2021/03/29 00:32:32;;;;;;;;;;;;;;;5.22;78.71;97127.13;1027397;28;19996;-69
2021/03/29 00:33:03;;;;;;;;;;;;;;;5.24;78.89;97130.34;1032362;28;19971;-68
2021/03/29 00:33:33;;;;;;;;;;;;;;;5.23;78.78;97128.75;1035683;28;19963;-68
2021/03/29 00:34:04;;;;;;;;;;;;;;;5.21;79.13;97125.53;1035154;28;20398;-68
2021/03/29 00:34:34;;;;;;;;;;;;;;;5.18;79.04;97131.13;1031422;28;19984;-68
2021/03/29 00:35:05;;;;;;;;;;;;;;;5.20;79.19;97127.34;1031052;28;19906;-69
2021/03/29 00:35:36;;;;;;;;;;;;;;;5.17;79.25;97121.72;1030820;28;19917;-68
2021/03/29 00:36:06;;;;;;;;;;;;;;;5.19;79.27;97130.13;1035877;28;20406;-68
2021/03/29 00:36:36;;;;;;;;;;;;;;;5.16;79.14;97125.31;1037900;28;20417;-69
2021/03/29 00:37:07;;;;;;;;;;;;;;;5.16;79.43;97133.09;1039466;28;19967;-68
2021/03/29 00:37:37;;;;;;;;;;;;;;;5.14;79.61;97127.31;1031166;28;20534;-69
2021/03/29 00:38:07;;;;;;;;;;;;;;;5.17;79.67;97126.94;1028306;28;19906;-68
2021/03/29 00:38:38;;;;;;;;;;;;;;;5.20;79.86;97129.94;1030814;28;19933;-68
2021/03/29 00:39:09;;;;;;;;;;;;;;;5.20;79.29;97127.34;1031153;28;19906;-68
2021/03/29 00:39:39;;;;;;;;;;;;;;;5.17;79.25;97137.34;1031082;28;19910;-69
2021/03/29 00:40:10;;;;;;;;;;;;;;;5.18;79.62;97131.13;1031548;28;19906;-68
2021/03/29 00:40:41;;;;;;;;;;;;;;;5.15;79.73;97131.50;1031189;28;19926;-68
2021/03/29 00:41:12;;;;;;;;;;;;;;;5.10;79.94;97131.31;1031682;28;20358;-68
2021/03/29 00:41:42;;;;;;;;;;;;;;;5.05;79.93;97131.84;1031377;28;19909;-69
2021/03/29 00:42:12;;;;;;;;;;;;;;;5.07;80.29;97129.88;1027506;28;19958;-68
2021/03/29 00:42:43;;;;;;;;;;;;;;;5.05;80.42;97129.25;1023493;28;20415;-68
2021/03/29 00:43:23;;;;;;;;;;;;;;;5.06;80.29;97130.06;1032223;28;19961;-68
2021/03/29 00:43:53;;;;;;;;;;;;;;;5.05;80.33;97129.25;1039227;28;20640;-68
2021/03/29 00:44:24;;;;;;;;;;;;;;;5.06;80.43;97122.25;1032994;28;20003;-69
2021/03/29 00:44:54;;;;;;;;;;;;;;;5.05;80.54;97125.84;1023916;28;19918;-68
2021/03/29 00:45:24;;;;;;;;;;;;;;;5.06;80.39;97127.47;1027597;28;19950;-69
2021/03/29 00:45:55;;;;;;;;;;;;;;;5.02;80.35;97124.44;1018951;29;19917;-68
2021/03/29 00:46:25;;;;;;;;;;;;;;;5.00;80.62;97125.63;1023411;28;19910;-69
2021/03/29 00:46:55;;;;;;;;;;;;;;;5.00;80.65;97123.03;1027468;28;19910;-69
2021/03/29 00:47:26;;;;;;;;;;;;;;;4.97;81.06;97125.03;1026060;28;19965;-69
2021/03/29 00:47:56;;;;;;;;;;;;;;;4.97;80.98;97126.84;1023139;28;19950;-68
2021/03/29 00:48:27;;;;;;;;;;;;;;;4.95;80.99;97132.22;1024767;28;19907;-68
2021/03/29 00:48:57;;;;;;;;;;;;;;;4.94;80.93;97129.81;1027282;28;20024;-68
2021/03/29 00:49:27;;;;;;;;;;;;;;;4.91;81.19;97131.00;1030683;28;19909;-68
2021/03/29 00:49:58;;;;;;;;;;;;;;;4.89;81.46;97130.38;1027706;28;19973;-68
2021/03/29 00:50:31;;;;;;;;;;;;;;;4.86;81.34;97130.78;1027419;28;20004;-69
2021/03/29 00:51:07;;;;;;;;;;;;;;;4.83;81.84;97128.56;1031657;28;19980;-69
2021/03/29 00:51:39;;;;;;;;;;;;;;;4.83;81.89;97130.34;1031025;28;19914;-68
2021/03/29 00:52:09;;;;;;;;;;;;;;;4.78;81.88;97125.72;1028552;28;19929;-69
2021/03/29 00:52:40;;;;;;;;;;;;;;;4.78;81.96;97125.72;1031170;28;19917;-69
2021/03/29 00:53:10;;;;;;;;;;;;;;;4.78;82.47;97124.91;1023445;28;20335;-69
2021/03/29 00:53:42;;;;;;;;;;;;;;;4.77;82.47;97128.53;1027768;28;19971;-68
2021/03/29 00:54:12;;;;;;;;;;;;;;;4.76;82.42;97127.69;1031189;28;20008;-68
2021/03/29 00:54:43;;;;;;;;;;;;;;;4.73;82.50;97125.50;1035377;28;19909;-68
2021/03/29 00:55:13;;;;;;;;;;;;;;;4.72;82.78;97131.69;1041177;28;20297;-69
2021/03/29 00:55:44;;;;;;;;;;;;;;;4.72;82.92;97126.47;1039423;28;19954;-69
2021/03/29 00:56:14;;;;;;;;;;;;;;;4.70;82.65;97128.47;1035291;28;19959;-68
2021/03/29 00:56:45;;;;;;;;;;;;;;;4.70;82.89;97133.69;1031357;28;20425;-69
2021/03/29 00:57:15;;;;;;;;;;;;;;;4.68;83.06;97127.84;1031093;28;19917;-68
2021/03/29 00:57:45;;;;;;;;;;;;;;;4.69;83.13;97132.88;1029756;28;19918;-69
2021/03/29 00:58:16;;;;;;;;;;;;;;;4.66;83.17;97132.44;1034617;28;19909;-68
2021/03/29 00:58:47;;;;;;;;;;;;;;;4.67;83.48;97136.66;1031023;28;19989;-68
2021/03/29 00:59:17;;;;;;;;;;;;;;;4.66;83.63;97135.03;1023081;28;19913;-68
2021/03/29 00:59:47;;;;;;;;;;;;;;;4.62;83.58;97136.41;1023353;28;19957;-68
2021/03/29 01:00:19;;;;;;;;;;;;;;;4.62;83.57;97131.22;1022961;28;19914;-69
2021/03/29 01:01:05;;;;;;;;;;;;;;;4.58;83.74;97132.59;1027789;28;19910;-68
2021/03/29 01:01:40;;;;;;;;;;;;;;;4.57;84.08;97133.59;1030030;28;19973;-68
2021/03/29 01:02:11;;;;;;;;;;;;;;;4.54;84.04;97131.38;1036469;28;20437;-69
2021/03/29 01:02:41;;;;;;;;;;;;;;;4.51;84.00;97131.75;1033638;28;19916;-69
2021/03/29 01:03:12;;;;;;;;;;;;;;;4.52;83.99;97134.13;1034677;28;19949;-69
2021/03/29 01:03:44;;;;;;;;;;;;;;;4.49;84.07;97131.91;1027078;28;19921;-69
2021/03/29 01:04:14;;;;;;;;;;;;;;;4.49;84.47;97130.16;1027390;28;19906;-69
2021/03/29 01:04:44;;;;;;;;;;;;;;;4.52;84.54;97125.53;1034690;28;19909;-68
2021/03/29 01:05:15;;;;;;;;;;;;;;;4.51;84.42;97129.94;1035288;28;19916;-69
2021/03/29 01:05:46;;;;;;;;;;;;;;;4.52;84.84;97128.13;1035217;28;19916;-69
2021/03/29 01:06:17;;;;;;;;;;;;;;;4.52;84.73;97128.13;1031270;28;19914;-68
2021/03/29 01:06:48;;;;;;;;;;;;;;;4.52;84.76;97128.13;1027324;28;19910;-69
2021/03/29 01:07:18;;;;;;;;;;;;;;;4.48;84.75;97127.72;1030553;28;20431;-69
2021/03/29 01:07:49;;;;;;;;;;;;;;;4.53;84.71;97127.97;1030711;28;19957;-68
2021/03/29 01:08:20;;;;;;;;;;;;;;;4.49;84.92;97131.91;1030788;28;20397;-69
2021/03/29 01:08:52;;;;;;;;;;;;;;;4.47;85.18;97134.72;1027235;28;19918;-69
2021/03/29 01:09:23;;;;;;;;;;;;;;;4.43;85.12;97130.09;1027567;28;19910;-68
2021/03/29 01:09:53;;;;;;;;;;;;;;;4.45;85.39;97131.50;1022838;29;19907;-68
2021/03/29 01:10:23;;;;;;;;;;;;;;;4.40;85.25;97126.06;1029102;28;19917;-69
2021/03/29 01:10:54;;;;;;;;;;;;;;;4.41;85.27;97129.47;1030066;28;19918;-69
2021/03/29 01:11:28;;;;;;;;;;;;;;;4.47;85.14;97132.13;1027302;28;20454;-69
2021/03/29 01:12:00;;;;;;;;;;;;;;;4.43;85.25;97133.50;1035042;28;19924;-69
2021/03/29 01:12:31;;;;;;;;;;;;;;;4.40;85.65;97133.06;1035734;28;19913;-68
2021/03/29 01:13:02;;;;;;;;;;;;;;;4.39;85.33;97134.03;1031826;28;19920;-68
2021/03/29 01:13:33;;;;;;;;;;;;;;;4.39;85.70;97128.84;1035071;28;19971;-69
2021/03/29 01:14:05;;;;;;;;;;;;;;;4.37;85.60;97134.25;1031176;28;20021;-68
2021/03/29 01:14:35;;;;;;;;;;;;;;;4.40;85.62;97133.88;1033702;28;19918;-69
2021/03/29 01:15:06;;;;;;;;;;;;;;;4.42;85.47;97136.25;1031087;28;20010;-68
2021/03/29 01:15:36;;;;;;;;;;;;;;;4.38;85.54;97133.25;1035443;28;19945;-68
2021/03/29 01:16:07;;;;;;;;;;;;;;;4.38;85.96;97130.66;1035006;28;20016;-68
2021/03/29 01:16:42;;;;;;;;;;;;;;;4.41;85.60;97135.47;1031181;28;19914;-69
2021/03/29 01:17:12;;;;;;;;;;;;;;;4.44;85.31;97135.09;1027329;28;20379;-68
2021/03/29 01:17:44;;;;;;;;;;;;;;;4.47;85.33;97132.13;1032612;28;20000;-68
2021/03/29 01:18:14;;;;;;;;;;;;;;;4.53;85.34;97134.94;1034964;28;19924;-68
2021/03/29 01:18:44;;;;;;;;;;;;;;;4.51;85.42;97134.34;1031055;28;19936;-68
2021/03/29 01:19:34;;;;;;;;;;;;;;;4.51;85.37;97139.53;1034869;28;19925;-69
2021/03/29 01:20:04;;;;;;;;;;;;;;;4.51;85.33;97137.75;1025310;28;19906;-69
2021/03/29 01:20:41;;;;;;;;;;;;;;;4.41;85.08;97114.69;1029771;28;19910;-68
2021/03/29 01:21:11;;;;;;;;;;;;;;;4.48;85.29;97136.31;1032204;28;20528;-69
2021/03/29 01:21:52;;;;;;;;;;;;;;;4.43;85.52;97141.28;1035219;28;19917;-69
2021/03/29 01:22:26;;;;;;;;;;;;;;;4.41;85.36;97135.47;1035577;28;20012;-68
2021/03/29 01:22:56;;;;;;;;;;;;;;;4.41;85.68;97132.88;1037019;28;19924;-68
2021/03/29 01:23:27;;;;;;;;;;;;;;;4.46;85.43;97135.72;1034885;28;20467;-68
2021/03/29 01:23:58;;;;;;;;;;;;;;;4.46;85.55;97140.91;1035337;28;19980;-68
2021/03/29 01:24:43;;;;;;;;;;;;;;;4.50;85.43;97133.53;1031261;28;20045;-69
2021/03/29 01:25:26;;;;;;;;;;;;;;;4.45;85.53;97134.09;1033046;28;19953;-68
2021/03/29 01:26:19;;;;;;;;;;;;;;;4.45;86.05;97131.50;1035185;28;19910;-67
2021/03/29 01:26:50;;;;;;;;;;;;;;;4.53;85.37;97142.75;1033274;28;19910;-68
2021/03/29 01:27:21;;;;;;;;;;;;;;;4.53;85.35;97133.16;1035862;28;20566;-68
2021/03/29 01:27:55;;;;;;;;;;;;;;;4.51;85.48;97135.13;1031764;28;19929;-69
2021/03/29 01:28:25;;;;;;;;;;;;;;;4.48;85.31;97136.31;1030453;28;19910;-68
2021/03/29 01:28:56;;;;;;;;;;;;;;;4.51;85.43;97135.13;1024383;28;19910;-69
2021/03/29 01:29:30;;;;;;;;;;;;;;;4.51;85.20;97131.75;1028087;28;19910;-69
2021/03/29 01:30:01;;;;;;;;;;;;;;;4.53;85.42;97138.38;1031735;28;20025;-69
2021/03/29 01:30:32;;;;;;;;;;;;;;;4.55;85.38;97130.38;1030962;28;19927;-68
2021/03/29 01:31:02;;;;;;;;;;;;;;;4.59;84.92;97126.38;1019132;29;19911;-69
2021/03/29 01:31:32;;;;;;;;;;;;;;;4.59;84.83;97129.00;1029359;28;19917;-68
2021/03/29 01:32:04;;;;;;;;;;;;;;;4.57;84.88;97129.19;1030985;28;19916;-68
2021/03/29 01:32:34;;;;;;;;;;;;;;;4.59;84.81;97131.59;1031232;28;20445;-68
2021/03/29 01:33:05;;;;;;;;;;;;;;;4.60;85.02;97131.41;1034875;28;19909;-69
2021/03/29 01:33:35;;;;;;;;;;;;;;;4.62;84.58;97134.59;1027407;28;20025;-69
2021/03/29 01:34:05;;;;;;;;;;;;;;;4.65;84.28;97134.22;1031009;28;19909;-68
2021/03/29 01:34:36;;;;;;;;;;;;;;;4.66;84.42;97137.63;1031557;28;19964;-68
2021/03/29 01:35:08;;;;;;;;;;;;;;;4.64;84.07;97131.84;1035232;28;20358;-69
2021/03/29 01:35:39;;;;;;;;;;;;;;;4.64;84.21;97129.22;1029444;28;20508;-68
2021/03/29 01:36:10;;;;;;;;;;;;;;;4.71;84.00;97137.88;1031504;28;19988;-70
2021/03/29 01:36:41;;;;;;;;;;;;;;;4.67;83.69;97134.06;1033999;28;20417;-68
2021/03/29 01:37:11;;;;;;;;;;;;;;;4.64;84.03;97137.03;1035251;28;19909;-69
2021/03/29 01:37:43;;;;;;;;;;;;;;;4.66;84.15;97137.63;1035135;28;20314;-69
2021/03/29 01:38:13;;;;;;;;;;;;;;;4.65;84.22;97130.84;1026822;28;20505;-67
2021/03/29 01:38:43;;;;;;;;;;;;;;;4.61;84.43;97134.81;1027118;28;19917;-69
2021/03/29 01:39:13;;;;;;;;;;;;;;;4.58;84.38;97135.19;1026109;28;19964;-68
2021/03/29 01:39:44;;;;;;;;;;;;;;;4.59;84.47;97137.59;1030806;28;19906;-68
2021/03/29 01:40:15;;;;;;;;;;;;;;;4.57;84.68;97133.59;1027235;28;19906;-68
2021/03/29 01:40:45;;;;;;;;;;;;;;;4.55;84.47;97136.38;1026990;28;19910;-69
2021/03/29 01:41:15;;;;;;;;;;;;;;;4.59;84.68;97139.38;1027272;28;19913;-68
2021/03/29 01:41:46;;;;;;;;;;;;;;;4.53;84.52;97138.38;1026649;28;19914;-69
2021/03/29 01:42:16;;;;;;;;;;;;;;;4.56;84.61;97140.59;1030386;28;19909;-69
2021/03/29 01:42:46;;;;;;;;;;;;;;;4.57;84.75;97141.38;1035432;28;19909;-68
2021/03/29 01:43:17;;;;;;;;;;;;;;;4.58;84.73;97141.19;1029767;28;19941;-69
2021/03/29 01:43:47;;;;;;;;;;;;;;;4.60;84.77;97141.00;1031013;28;19935;-68
2021/03/29 01:44:17;;;;;;;;;;;;;;;4.62;84.25;97141.59;1028018;28;19921;-68
2021/03/29 01:44:48;;;;;;;;;;;;;;;4.61;84.37;97140.00;1027225;28;20591;-69
2021/03/29 01:45:18;;;;;;;;;;;;;;;4.57;84.45;97136.19;1031025;28;19910;-69
2021/03/29 01:45:48;;;;;;;;;;;;;;;4.57;84.52;97141.38;1034945;28;19917;-69
2021/03/29 01:46:19;;;;;;;;;;;;;;;4.58;84.73;97148.97;1030962;28;19929;-68
2021/03/29 01:46:49;;;;;;;;;;;;;;;4.63;84.63;97140.63;1029462;28;20012;-68
2021/03/29 01:47:19;;;;;;;;;;;;;;;4.64;84.49;97140.44;1025553;28;20391;-69
2021/03/29 01:47:50;;;;;;;;;;;;;;;4.62;84.02;97139.00;1035052;28;19968;-68
2021/03/29 01:48:20;;;;;;;;;;;;;;;4.60;84.27;97147.00;1031508;28;19949;-68
2021/03/29 01:48:50;;;;;;;;;;;;;;;4.59;84.40;97147.19;1030743;28;19913;-69
2021/03/29 01:49:21;;;;;;;;;;;;;;;4.56;84.65;97144.97;1030900;28;20510;-69
2021/03/29 01:49:51;;;;;;;;;;;;;;;4.58;84.87;97140.38;1027199;28;20306;-68
2021/03/29 01:50:28;;;;;;;;;;;;;;;4.58;84.79;97137.78;1023246;28;20434;-69
2021/03/29 01:50:58;;;;;;;;;;;;;;;4.61;84.02;97142.59;1030149;28;19925;-68
2021/03/29 01:51:29;;;;;;;;;;;;;;;4.55;84.54;97143.38;1034985;28;19936;-69
2021/03/29 01:51:59;;;;;;;;;;;;;;;4.56;84.82;97143.19;1034047;28;20381;-69
2021/03/29 01:52:29;;;;;;;;;;;;;;;4.58;84.32;97141.19;1032452;28;19910;-69
2021/03/29 01:53:00;;;;;;;;;;;;;;;4.55;84.18;97141.56;1023139;28;20597;-68
2021/03/29 01:53:30;;;;;;;;;;;;;;;4.53;84.77;97137.53;1032574;28;19917;-67
2021/03/29 01:54:00;;;;;;;;;;;;;;;4.52;84.56;97144.53;1035031;28;19940;-68
2021/03/29 01:54:32;;;;;;;;;;;;;;;4.57;84.29;97142.19;1029812;28;20367;-68
2021/03/29 01:55:03;;;;;;;;;;;;;;;4.52;84.44;97135.94;1030882;28;19910;-69
2021/03/29 01:55:34;;;;;;;;;;;;;;;4.51;84.86;97139.53;1031639;28;19916;-69
2021/03/29 01:56:04;;;;;;;;;;;;;;;4.47;84.61;97145.13;1029395;28;20414;-69
2021/03/29 01:56:34;;;;;;;;;;;;;;;4.44;84.68;97140.28;1031281;28;19913;-68
2021/03/29 01:57:08;;;;;;;;;;;;;;;4.47;84.70;97144.31;1029967;28;19929;-68
2021/03/29 01:57:38;;;;;;;;;;;;;;;4.42;85.14;97144.88;1030693;28;20540;-69
2021/03/29 01:58:08;;;;;;;;;;;;;;;4.41;85.12;97145.88;1031775;28;19898;-69
2021/03/29 01:58:39;;;;;;;;;;;;;;;4.40;85.36;97144.25;1030864;28;19910;-68
2021/03/29 01:59:09;;;;;;;;;;;;;;;4.28;84.67;97118.97;1031204;28;19912;-68
2021/03/29 01:59:39;;;;;;;;;;;;;;;4.43;84.78;97149.09;1028151;28;19949;-69
2021/03/29 02:00:10;;;;;;;;;;;;;;;4.41;85.07;97147.66;1027805;28;19920;-68
2021/03/29 02:00:42;;;;;;;;;;;;;;;4.39;84.87;97142.66;1035462;28;19917;-69
2021/03/29 02:01:13;;;;;;;;;;;;;;;4.38;84.96;97150.63;1038525;28;19909;-68
2021/03/29 02:01:43;;;;;;;;;;;;;;;4.39;84.80;97153.06;1041675;28;19921;-69
2021/03/29 02:02:13;;;;;;;;;;;;;;;4.39;85.31;97147.03;1043489;28;19913;-69
2021/03/29 02:02:43;;;;;;;;;;;;;;;4.37;85.55;97144.63;1034684;28;20000;-69
2021/03/29 02:03:14;;;;;;;;;;;;;;;4.38;85.48;97148.03;1031049;28;20391;-68
2021/03/29 02:03:44;;;;;;;;;;;;;;;4.36;85.55;97143.03;1027208;28;19921;-69
2021/03/29 02:04:14;;;;;;;;;;;;;;;4.35;85.19;97151.81;1027648;28;20090;-68
2021/03/29 02:04:45;;;;;;;;;;;;;;;4.31;85.47;97140.19;1028111;28;19949;-69
2021/03/29 02:05:16;;;;;;;;;;;;;;;4.33;85.35;97147.81;1027325;28;19910;-68
2021/03/29 02:05:46;;;;;;;;;;;;;;;4.33;85.08;97143.41;1027185;28;19929;-68
2021/03/29 02:06:16;;;;;;;;;;;;;;;4.35;85.44;97145.81;1029307;28;20323;-68
2021/03/29 02:06:47;;;;;;;;;;;;;;;4.36;85.28;97144.81;1031145;28;19948;-69
2021/03/29 02:07:17;;;;;;;;;;;;;;;4.34;84.89;97145.00;1033926;28;19913;-68
2021/03/29 02:07:47;;;;;;;;;;;;;;;4.35;85.13;97151.81;1035003;28;20254;-68
2021/03/29 02:08:18;;;;;;;;;;;;;;;4.35;85.48;97144.00;1030567;28;20019;-69
2021/03/29 02:08:48;;;;;;;;;;;;;;;4.32;85.47;97141.00;1027275;28;20374;-68
2021/03/29 02:09:19;;;;;;;;;;;;;;;4.32;85.65;97148.78;1026889;28;19920;-69
2021/03/29 02:09:49;;;;;;;;;;;;;;;4.31;85.29;97142.78;1027164;28;19914;-69
2021/03/29 02:10:20;;;;;;;;;;;;;;;4.34;85.30;97145.00;1030322;28;20013;-68
2021/03/29 02:10:51;;;;;;;;;;;;;;;4.37;85.28;97143.84;1034628;28;19905;-69
2021/03/29 02:11:21;;;;;;;;;;;;;;;4.40;84.89;97135.66;1035049;28;19949;-69
2021/03/29 02:11:51;;;;;;;;;;;;;;;4.43;84.48;97138.69;1034176;28;19917;-69
2021/03/29 02:12:22;;;;;;;;;;;;;;;4.41;84.42;97145.88;1031202;28;19909;-68
2021/03/29 02:12:52;;;;;;;;;;;;;;;4.42;84.40;97144.88;1031245;28;20260;-69
2021/03/29 02:13:25;;;;;;;;;;;;;;;4.43;84.37;97143.09;1027234;28;20004;-68
2021/03/29 02:13:56;;;;;;;;;;;;;;;4.44;84.13;97142.88;1031372;28;19913;-69
2021/03/29 02:14:26;;;;;;;;;;;;;;;4.48;83.74;97141.50;1035423;28;19909;-68
2021/03/29 02:14:56;;;;;;;;;;;;;;;4.45;84.22;97141.09;1031110;28;19909;-68
2021/03/29 02:15:27;;;;;;;;;;;;;;;4.39;84.04;97140.06;1026968;28;20298;-69
2021/03/29 02:15:59;;;;;;;;;;;;;;;4.40;84.32;97144.25;1031204;28;19921;-68
2021/03/29 02:16:29;;;;;;;;;;;;;;;4.40;84.01;97141.66;1031564;28;19902;-68
2021/03/29 02:17:00;;;;;;;;;;;;;;;4.37;84.11;97144.63;1038516;28;20093;-68
2021/03/29 02:17:30;;;;;;;;;;;;;;;4.39;84.17;97141.84;1037252;28;19912;-69
2021/03/29 02:18:01;;;;;;;;;;;;;;;4.43;84.10;97141.28;1032833;28;20000;-68
2021/03/29 02:18:34;;;;;;;;;;;;;;;4.43;83.57;97143.88;1030253;28;19936;-68
2021/03/29 02:19:05;;;;;;;;;;;;;;;4.38;83.85;97146.25;1034251;28;19927;-69
2021/03/29 02:19:35;;;;;;;;;;;;;;;4.38;83.55;97146.25;1034973;28;19906;-69
2021/03/29 02:20:07;;;;;;;;;;;;;;;4.42;83.85;97146.66;1034342;28;20702;-69
2021/03/29 02:20:38;;;;;;;;;;;;;;;4.38;83.95;97141.03;1035099;28;19921;-68
2021/03/29 02:21:10;;;;;;;;;;;;;;;4.32;83.86;97148.78;1035458;28;19902;-69
2021/03/29 02:21:40;;;;;;;;;;;;;;;4.32;84.25;97146.97;1031112;28;19906;-69
2021/03/29 02:22:11;;;;;;;;;;;;;;;4.35;84.12;97153.59;1034328;28;19905;-69
2021/03/29 02:22:44;;;;;;;;;;;;;;;4.33;83.96;97150.41;1031836;28;19937;-69
2021/03/29 02:23:17;;;;;;;;;;;;;;;4.31;84.41;97147.97;1034192;28;19960;-69
2021/03/29 02:23:49;;;;;;;;;;;;;;;4.34;84.10;97150.22;1034130;28;20586;-68
2021/03/29 02:24:19;;;;;;;;;;;;;;;4.33;84.21;97153.00;1030861;28;19913;-69
2021/03/29 02:24:49;;;;;;;;;;;;;;;4.40;83.85;97152.06;1035256;28;19905;-68
2021/03/29 02:25:23;;;;;;;;;;;;;;;4.39;83.28;97153.06;1035429;28;19940;-69
2021/03/29 02:25:54;;;;;;;;;;;;;;;4.43;83.50;97150.88;1027114;28;19910;-68
2021/03/29 02:26:25;;;;;;;;;;;;;;;4.39;83.68;97150.47;1023301;28;19914;-69
2021/03/29 02:26:55;;;;;;;;;;;;;;;4.41;83.31;97151.06;1032399;28;20482;-69
2021/03/29 02:27:25;;;;;;;;;;;;;;;4.38;83.50;97150.63;1034247;28;19909;-69
2021/03/29 02:27:56;;;;;;;;;;;;;;;4.37;83.77;97149.84;1036164;28;19913;-69
2021/03/29 02:28:26;;;;;;;;;;;;;;;4.37;83.58;97149.84;1039390;28;20016;-68
2021/03/29 02:28:57;;;;;;;;;;;;;;;4.38;83.70;97151.44;1032042;28;20108;-68
2021/03/29 02:29:27;;;;;;;;;;;;;;;4.35;83.66;97151.00;1032383;28;19920;-69
2021/03/29 02:29:57;;;;;;;;;;;;;;;4.31;83.73;97147.19;1031816;28;19917;-69
2021/03/29 02:30:29;;;;;;;;;;;;;;;4.32;83.68;97152.19;1024803;28;20280;-68
2021/03/29 02:31:00;;;;;;;;;;;;;;;4.29;83.99;97149.94;1020276;29;19907;-68
2021/03/29 02:31:30;;;;;;;;;;;;;;;4.29;84.24;97152.56;1027921;28;19914;-69
2021/03/29 02:32:02;;;;;;;;;;;;;;;4.34;83.91;97142.41;1029199;28;19909;-69
2021/03/29 02:32:32;;;;;;;;;;;;;;;4.33;83.95;97147.81;1031906;28;19929;-69
2021/03/29 02:33:04;;;;;;;;;;;;;;;4.35;83.90;97151.81;1031717;28;20370;-69
2021/03/29 02:33:34;;;;;;;;;;;;;;;4.33;83.96;97148.59;1027951;28;19914;-69
2021/03/29 02:34:05;;;;;;;;;;;;;;;4.31;83.69;97144.59;1027905;28;20005;-69
2021/03/29 02:34:35;;;;;;;;;;;;;;;4.23;83.97;97151.53;1032086;28;19913;-69
2021/03/29 02:35:06;;;;;;;;;;;;;;;4.20;83.80;97149.31;1040248;28;20321;-69
2021/03/29 02:35:36;;;;;;;;;;;;;;;4.21;84.12;97147.50;1038723;28;19913;-69
2021/03/29 02:36:06;;;;;;;;;;;;;;;4.16;84.06;97148.06;1031844;28;19954;-69
2021/03/29 02:36:37;;;;;;;;;;;;;;;4.15;84.17;97149.03;1019908;29;19911;-68
2021/03/29 02:37:07;;;;;;;;;;;;;;;4.17;84.27;97149.66;1019435;29;19918;-68
2021/03/29 02:37:38;;;;;;;;;;;;;;;4.22;84.40;97149.09;1027791;28;19906;-69
2021/03/29 02:38:12;;;;;;;;;;;;;;;4.28;83.95;97152.75;1027737;28;20343;-68
2021/03/29 02:38:42;;;;;;;;;;;;;;;4.27;83.53;97153.75;1027200;28;20018;-69
2021/03/29 02:39:13;;;;;;;;;;;;;;;4.22;83.82;97152.50;1028715;28;19976;-68
2021/03/29 02:39:43;;;;;;;;;;;;;;;4.27;84.02;97149.34;1031995;28;19914;-68
2021/03/29 02:40:14;;;;;;;;;;;;;;;4.29;84.02;97154.34;1027914;28;19910;-68
2021/03/29 02:40:44;;;;;;;;;;;;;;;4.30;83.53;97154.19;1023706;28;19906;-68
2021/03/29 02:41:15;;;;;;;;;;;;;;;4.25;83.48;97157.31;1027901;28;19960;-68
2021/03/29 02:41:45;;;;;;;;;;;;;;;4.21;83.34;97150.09;1024392;28;19961;-68
2021/03/29 02:42:16;;;;;;;;;;;;;;;4.19;83.69;97149.47;1029123;28;20308;-69
2021/03/29 02:42:46;;;;;;;;;;;;;;;4.18;83.96;97155.66;1031975;28;19909;-69
2021/03/29 02:43:17;;;;;;;;;;;;;;;4.14;83.59;97154.44;1028371;28;20406;-67
2021/03/29 02:43:47;;;;;;;;;;;;;;;4.12;83.76;97151.22;1031803;28;19910;-69
2021/03/29 02:44:17;;;;;;;;;;;;;;;4.10;84.00;97158.41;1036298;28;19929;-69